createdAt,value
2023-07-17T00:01:07.688Z,11.73
2023-07-17T00:03:35.798Z,15.00
2023-07-17T00:06:04.476Z,12.35
2023-07-17T00:08:32.562Z,9.65
2023-07-17T00:11:01.189Z,10.82
2023-07-17T00:13:29.787Z,11.13
2023-07-17T00:15:57.940Z,9.88
2023-07-17T00:18:26.210Z,10.02
2023-07-17T00:20:54.930Z,9.15
2023-07-17T00:23:22.994Z,11.98
2023-07-17T00:25:51.009Z,9.55
2023-07-17T00:28:19.034Z,11.27
2023-07-17T00:30:47.205Z,12.93
2023-07-17T00:33:15.322Z,8.95
2023-07-17T00:35:43.506Z,10.52
2023-07-17T00:38:11.576Z,12.15
2023-07-17T00:40:42.053Z,15.85
2023-07-17T00:43:13.479Z,9.10
2023-07-17T00:45:45.090Z,10.77
2023-07-17T00:48:13.358Z,10.20
2023-07-17T00:50:41.628Z,10.70
2023-07-17T00:53:10.268Z,14.15
2023-07-17T00:55:39.045Z,14.77
2023-07-17T00:58:08.270Z,11.20
2023-07-17T01:00:36.360Z,9.30
2023-07-17T01:03:05.797Z,15.05
2023-07-17T01:05:34.056Z,13.00
2023-07-17T01:08:20.842Z,9.82
2023-07-17T01:10:49.017Z,10.13
2023-07-17T01:13:18.147Z,14.27
2023-07-17T01:15:46.207Z,11.50
2023-07-17T01:18:32.950Z,10.40
2023-07-17T01:21:00.966Z,9.25
2023-07-17T01:23:29.036Z,9.50
2023-07-17T01:25:57.166Z,10.15
2023-07-17T01:28:27.235Z,7.80
2023-07-17T01:30:55.342Z,7.57
2023-07-17T01:33:23.269Z,11.90
2023-07-17T01:35:51.382Z,13.00
2023-07-17T01:38:19.484Z,14.65
2023-07-17T01:40:48.412Z,14.32
2023-07-17T01:43:16.745Z,16.83
2023-07-17T01:45:44.965Z,16.23
2023-07-17T01:48:15.264Z,18.17
2023-07-17T01:50:43.400Z,12.93
2023-07-17T01:53:11.546Z,18.05
2023-07-17T01:55:39.846Z,17.52
2023-07-17T01:58:08.212Z,16.70
2023-07-17T02:00:36.856Z,14.68
2023-07-17T02:03:05.089Z,14.35
2023-07-17T02:05:33.207Z,19.60
2023-07-17T02:08:01.387Z,14.43
2023-07-17T02:10:31.130Z,9.05
2023-07-17T02:12:59.208Z,12.13
2023-07-17T02:15:27.683Z,13.73
2023-07-17T02:17:55.893Z,11.82
2023-07-17T02:20:24.798Z,13.52
2023-07-17T02:22:52.818Z,8.60
2023-07-17T02:25:21.011Z,12.30
2023-07-17T02:27:49.050Z,13.65
2023-07-17T02:30:18.716Z,12.80
2023-07-17T02:32:46.807Z,16.38
2023-07-17T02:35:15.328Z,15.73
2023-07-17T02:37:43.447Z,13.02
2023-07-17T02:40:30.360Z,17.63
2023-07-17T02:42:58.497Z,11.90
2023-07-17T02:45:26.620Z,17.98
2023-07-17T02:47:54.827Z,12.32
2023-07-17T02:50:23.088Z,15.45
2023-07-17T02:52:51.348Z,15.13
2023-07-17T02:55:19.528Z,18.65
2023-07-17T02:57:47.524Z,20.40
2023-07-17T03:00:16.632Z,20.92
2023-07-17T03:02:47.162Z,21.08
2023-07-17T03:05:16.470Z,19.92
2023-07-17T03:07:48.104Z,15.43
2023-07-17T03:10:16.396Z,20.30
2023-07-17T03:12:44.486Z,20.48
2023-07-17T03:15:13.876Z,26.38
2023-07-17T03:17:42.377Z,31.50
2023-07-17T03:20:11.524Z,27.42
2023-07-17T03:22:40.811Z,31.75
2023-07-17T03:25:09.203Z,36.75
2023-07-17T03:27:38.413Z,46.85
2023-07-17T03:30:25.427Z,61.10
2023-07-17T03:32:53.747Z,54.88
2023-07-17T03:35:21.811Z,55.17
2023-07-17T03:37:51.631Z,48.45
2023-07-17T03:40:20.573Z,53.25
2023-07-17T03:42:48.514Z,56.67
2023-07-17T03:45:16.762Z,60.92
2023-07-17T03:47:46.118Z,53.17
2023-07-17T03:50:15.455Z,49.70
2023-07-17T03:52:43.707Z,46.70
2023-07-17T03:55:11.932Z,52.30
2023-07-17T03:57:39.942Z,43.42
2023-07-17T04:00:14.138Z,48.65
2023-07-17T04:02:43.884Z,42.45
2023-07-17T04:05:30.024Z,37.13
2023-07-17T04:07:59.048Z,28.02
2023-07-17T04:10:29.485Z,30.88
2023-07-17T04:12:58.062Z,27.75
2023-07-17T04:15:30.684Z,26.48
2023-07-17T04:17:59.411Z,20.83
2023-07-17T04:20:27.424Z,23.90
2023-07-17T04:22:56.723Z,19.60
2023-07-17T04:25:24.958Z,28.85
2023-07-17T04:27:52.955Z,32.72
2023-07-17T04:30:21.443Z,38.05
2023-07-17T04:32:53.461Z,35.75
2023-07-17T04:35:22.208Z,35.45
2023-07-17T04:37:50.971Z,27.25
2023-07-17T04:40:19.100Z,28.20
2023-07-17T04:42:49.372Z,33.25
2023-07-17T04:45:20.985Z,31.90
2023-07-17T04:47:51.072Z,31.38
2023-07-17T04:50:19.476Z,24.95
2023-07-17T04:52:47.545Z,22.88
2023-07-17T04:55:15.749Z,24.38
2023-07-17T04:57:43.924Z,20.55
2023-07-17T05:00:12.902Z,21.85
2023-07-17T05:02:40.999Z,27.98
2023-07-17T05:05:09.510Z,36.60
2023-07-17T05:07:37.762Z,35.90
2023-07-17T05:10:06.320Z,31.83
2023-07-17T05:12:34.476Z,55.22
2023-07-17T05:15:02.562Z,68.20
2023-07-17T05:17:31.914Z,64.07
2023-07-17T05:20:00.342Z,68.80
2023-07-17T05:22:28.481Z,59.45
2023-07-17T05:24:56.905Z,58.15
2023-07-17T05:27:24.864Z,51.78
2023-07-17T05:29:52.933Z,50.40
2023-07-17T05:32:21.055Z,49.58
2023-07-17T05:34:51.234Z,57.13
2023-07-17T05:37:56.386Z,57.38
2023-07-17T05:40:24.614Z,55.70
2023-07-17T05:42:52.829Z,61.35
2023-07-17T05:45:21.651Z,57.78
2023-07-17T05:47:49.741Z,56.97
2023-07-17T05:50:20.533Z,58.47
2023-07-17T05:52:48.839Z,63.38
2023-07-17T05:55:17.038Z,73.25
2023-07-17T05:57:45.343Z,126.72
2023-07-17T06:00:16.276Z,177.63
2023-07-17T06:02:46.517Z,187.75
2023-07-17T06:05:15.809Z,192.82
2023-07-17T06:08:02.485Z,194.63
2023-07-17T06:10:31.644Z,173.25
2023-07-17T06:12:59.686Z,129.85
2023-07-17T06:15:28.727Z,142.77
2023-07-17T06:18:15.701Z,128.90
2023-07-17T06:20:43.829Z,110.28
2023-07-17T06:23:11.784Z,117.25
2023-07-17T06:25:40.530Z,132.07
2023-07-17T06:28:09.573Z,115.03
2023-07-17T06:30:37.617Z,97.43
2023-07-17T06:33:05.821Z,73.28
2023-07-17T06:35:33.913Z,73.55
2023-07-17T06:38:02.009Z,87.90
2023-07-17T06:40:30.171Z,90.53
2023-07-17T06:42:58.282Z,112.05
2023-07-17T06:45:26.462Z,130.55
2023-07-17T06:47:54.637Z,100.25
2023-07-17T06:50:22.798Z,74.50
2023-07-17T06:52:50.855Z,71.63
2023-07-17T06:55:18.942Z,41.95
2023-07-17T06:57:47.068Z,61.75
2023-07-17T07:00:15.602Z,79.45
2023-07-17T07:02:43.665Z,67.57
2023-07-17T07:05:11.731Z,97.43
2023-07-17T07:07:39.784Z,108.38
2023-07-17T07:10:08.618Z,98.03
2023-07-17T07:12:36.737Z,110.55
2023-07-17T07:15:06.977Z,102.00
2023-07-17T07:17:35.254Z,100.63
2023-07-17T07:20:04.460Z,103.40
2023-07-17T07:22:32.537Z,88.30
2023-07-17T07:25:00.770Z,83.57
2023-07-17T07:27:30.632Z,72.88
2023-07-17T07:29:58.807Z,83.07
2023-07-17T07:32:27.436Z,80.45
2023-07-17T07:34:55.556Z,70.32
2023-07-17T07:37:23.527Z,58.35
2023-07-17T07:39:51.624Z,42.35
2023-07-17T07:42:19.677Z,44.20
2023-07-17T07:44:47.778Z,44.53
2023-07-17T07:47:15.856Z,67.38
2023-07-17T07:49:45.549Z,67.95
2023-07-17T07:54:45.859Z,66.38
2023-07-17T07:57:14.200Z,62.25
2023-07-17T07:59:42.207Z,80.95
2023-07-17T08:02:12.560Z,95.45
2023-07-17T08:04:40.721Z,107.38
2023-07-17T08:07:08.924Z,105.45
2023-07-17T08:09:37.065Z,107.57
2023-07-17T08:12:05.939Z,90.15
2023-07-17T08:14:34.163Z,72.55
2023-07-17T08:17:02.299Z,86.05
2023-07-17T08:19:30.430Z,117.68
2023-07-17T08:21:58.573Z,106.65
2023-07-17T08:27:12.352Z,91.68
2023-07-17T08:29:40.490Z,68.55
2023-07-17T08:32:09.030Z,69.10
2023-07-17T08:34:37.141Z,63.42
2023-07-17T08:37:05.305Z,70.05
2023-07-17T08:39:33.386Z,69.15
2023-07-17T08:42:01.663Z,66.45
2023-07-17T08:44:31.310Z,71.55
2023-07-17T08:47:01.805Z,73.22
2023-07-17T08:49:33.124Z,65.68
2023-07-17T08:52:04.621Z,61.03
2023-07-17T08:54:34.914Z,47.25
2023-07-17T08:57:06.389Z,25.05
2023-07-17T08:59:38.715Z,14.77
2023-07-17T09:02:07.113Z,16.08
2023-07-17T09:04:36.363Z,12.52
2023-07-17T09:07:04.946Z,10.73
2023-07-17T09:09:33.034Z,8.88
2023-07-17T09:14:57.141Z,11.70
2023-07-17T09:17:27.985Z,8.23
2023-07-17T09:20:09.719Z,11.23
2023-07-17T09:22:39.931Z,9.45
2023-07-17T09:25:09.012Z,10.40
2023-07-17T09:27:48.349Z,7.97
2023-07-17T09:30:18.457Z,9.20
2023-07-17T09:32:48.095Z,7.80
2023-07-17T09:35:19.584Z,8.60
2023-07-17T09:37:48.071Z,8.35
2023-07-17T09:40:19.516Z,6.68
2023-07-17T09:42:54.673Z,8.45
2023-07-17T09:45:23.072Z,9.00
2023-07-17T09:47:52.186Z,9.05
2023-07-17T09:50:21.638Z,8.95
2023-07-17T09:52:51.802Z,6.10
2023-07-17T09:55:22.240Z,6.32
2023-07-17T09:57:53.112Z,6.43
2023-07-17T10:00:23.425Z,8.95
2023-07-17T10:03:11.701Z,6.95
2023-07-17T10:05:40.499Z,8.60
2023-07-17T10:08:30.208Z,7.15
2023-07-17T10:10:58.322Z,8.85
2023-07-17T10:13:27.161Z,11.32
2023-07-17T10:15:55.345Z,8.50
2023-07-17T10:18:24.550Z,8.68
2023-07-17T10:20:56.722Z,10.95
2023-07-17T10:23:31.028Z,5.90
2023-07-17T10:26:21.809Z,6.53
2023-07-17T10:28:55.428Z,11.60
2023-07-17T10:31:25.301Z,5.78
2023-07-17T10:33:57.339Z,8.10
2023-07-17T10:36:45.971Z,6.10
2023-07-17T10:39:18.801Z,8.73
2023-07-17T10:41:51.550Z,9.43
2023-07-17T10:44:20.996Z,8.32
2023-07-17T10:46:49.555Z,7.75
2023-07-17T10:49:19.277Z,5.05
2023-07-17T10:51:54.892Z,7.63
2023-07-17T10:54:22.958Z,10.13
2023-07-17T10:56:51.959Z,6.82
2023-07-17T10:59:21.109Z,8.73
2023-07-17T11:01:49.245Z,8.10
2023-07-17T11:04:19.302Z,5.05
2023-07-17T11:06:47.425Z,6.70
2023-07-17T11:09:16.116Z,8.73
2023-07-17T11:11:46.065Z,7.78
2023-07-17T11:14:15.221Z,10.43
2023-07-17T11:16:44.327Z,7.93
2023-07-17T11:19:13.352Z,6.22
2023-07-17T11:21:41.473Z,7.35
2023-07-17T11:24:09.743Z,6.93
2023-07-17T11:26:37.993Z,6.53
2023-07-17T11:29:06.086Z,7.80
2023-07-17T11:31:35.940Z,6.82
2023-07-17T11:34:10.617Z,9.23
2023-07-17T11:36:57.447Z,9.43
2023-07-17T11:39:26.777Z,5.65
2023-07-17T11:41:57.742Z,7.47
2023-07-17T11:44:34.149Z,7.40
2023-07-17T11:47:07.239Z,9.48
2023-07-17T11:49:36.028Z,11.02
2023-07-17T11:52:04.245Z,8.13
2023-07-17T11:54:38.169Z,7.47
2023-07-17T11:57:06.673Z,9.80
2023-07-17T12:00:02.807Z,6.55
2023-07-17T12:02:39.955Z,7.75
2023-07-17T12:05:08.458Z,12.20
2023-07-17T12:07:36.570Z,6.00
2023-07-17T12:10:23.605Z,9.13
2023-07-17T12:12:52.741Z,6.97
2023-07-17T12:15:20.913Z,10.23
2023-07-17T12:17:49.057Z,9.82
2023-07-17T12:20:17.828Z,9.68
2023-07-17T12:22:52.004Z,6.63
2023-07-17T12:25:20.747Z,8.50
2023-07-17T12:27:48.978Z,7.82
2023-07-17T12:30:20.183Z,12.00
2023-07-17T12:32:48.978Z,9.25
2023-07-17T12:35:17.054Z,7.05
2023-07-17T12:37:45.202Z,9.95
2023-07-17T12:40:13.270Z,5.93
2023-07-17T12:42:41.629Z,8.13
2023-07-17T12:45:09.829Z,8.10
2023-07-17T12:47:37.959Z,4.45
2023-07-17T12:50:09.529Z,4.88
2023-07-17T12:52:38.582Z,2.90
2023-07-17T12:55:07.533Z,3.15
2023-07-17T12:57:41.382Z,2.55
2023-07-17T13:00:10.519Z,5.88
2023-07-17T13:02:40.873Z,4.03
2023-07-17T13:05:09.418Z,4.05
2023-07-17T13:07:37.449Z,6.05
2023-07-17T13:10:24.142Z,4.25
2023-07-17T13:12:52.231Z,3.20
2023-07-17T13:15:20.331Z,2.10
2023-07-17T13:17:48.465Z,3.88
2023-07-17T13:20:16.738Z,5.28
2023-07-17T13:22:44.931Z,4.22
2023-07-17T13:25:13.033Z,4.95
2023-07-17T13:27:41.136Z,2.60
2023-07-17T13:30:09.862Z,5.43
2023-07-17T13:32:38.959Z,3.95
2023-07-17T13:35:07.758Z,5.35
2023-07-17T13:37:35.786Z,4.82
2023-07-17T13:40:04.163Z,7.03
2023-07-17T13:42:32.259Z,5.53
2023-07-17T13:45:01.419Z,5.15
2023-07-17T13:47:30.221Z,4.40
2023-07-17T13:49:58.574Z,3.25
2023-07-17T13:52:26.616Z,4.60
2023-07-17T13:54:54.720Z,3.10
2023-07-17T13:57:22.710Z,6.07
2023-07-17T14:00:09.847Z,7.57
2023-07-17T14:02:39.157Z,8.80
2023-07-17T14:05:07.545Z,7.18
2023-07-17T14:07:35.718Z,8.07
2023-07-17T14:10:05.065Z,5.45
2023-07-17T14:12:33.215Z,6.90
2023-07-17T14:15:01.269Z,11.35
2023-07-17T14:17:29.974Z,10.85
2023-07-17T14:19:59.346Z,11.90
2023-07-17T14:25:13.148Z,8.48
2023-07-17T14:27:41.326Z,12.70
2023-07-17T14:30:12.034Z,11.43
2023-07-17T14:33:00.073Z,14.10
2023-07-17T14:35:28.150Z,12.88
2023-07-17T14:37:56.279Z,11.85
2023-07-17T14:40:24.492Z,6.03
2023-07-17T14:42:53.465Z,10.43
2023-07-17T14:45:21.686Z,7.80
2023-07-17T14:47:49.823Z,8.35
2023-07-17T14:50:21.527Z,8.68
2023-07-17T14:52:50.881Z,7.68
2023-07-17T14:55:19.155Z,6.95
2023-07-17T14:57:47.818Z,8.32
2023-07-17T15:00:16.414Z,6.32
2023-07-17T15:02:44.697Z,7.32
2023-07-17T15:05:16.020Z,5.47
2023-07-17T15:07:45.429Z,9.48
2023-07-17T15:10:13.451Z,9.18
2023-07-17T15:12:41.723Z,8.50
2023-07-17T15:15:10.574Z,4.68
2023-07-17T15:17:38.938Z,10.63
2023-07-17T15:20:07.613Z,8.20
2023-07-17T15:22:39.384Z,10.77
2023-07-17T15:25:08.607Z,11.95
2023-07-17T15:27:36.737Z,8.55
2023-07-17T15:30:05.885Z,9.07
2023-07-17T15:32:34.153Z,8.85
2023-07-17T15:35:02.245Z,12.68
2023-07-17T15:37:30.371Z,12.43
2023-07-17T15:39:58.558Z,11.55
2023-07-17T15:42:26.798Z,13.82
2023-07-17T15:44:55.226Z,14.10
2023-07-17T15:47:23.572Z,17.63
2023-07-17T15:49:51.674Z,14.05
2023-07-17T15:52:19.759Z,13.27
2023-07-17T15:54:47.751Z,10.25
2023-07-17T15:57:15.849Z,10.75
2023-07-17T15:59:43.883Z,10.85
2023-07-17T16:02:12.041Z,9.35
2023-07-17T16:04:40.184Z,10.20
2023-07-17T16:07:26.565Z,10.82
2023-07-17T16:09:54.689Z,9.98
2023-07-17T16:12:24.528Z,9.30
2023-07-17T16:14:52.797Z,8.90
2023-07-17T16:17:20.790Z,12.82
2023-07-17T16:19:50.835Z,12.32
2023-07-17T16:22:19.159Z,12.18
2023-07-17T16:24:47.298Z,9.65
2023-07-17T16:27:16.477Z,10.20
2023-07-17T16:29:44.937Z,9.80
2023-07-17T16:32:31.642Z,10.10
2023-07-17T16:37:45.072Z,12.52
2023-07-17T16:40:13.165Z,13.48
2023-07-17T16:42:41.275Z,9.93
2023-07-17T16:45:28.399Z,7.10
2023-07-17T16:47:56.646Z,9.63
2023-07-17T16:50:24.743Z,9.63
2023-07-17T16:52:53.802Z,12.40
2023-07-17T16:55:21.878Z,11.70
2023-07-17T16:57:50.713Z,13.35
2023-07-17T17:00:23.301Z,9.13
2023-07-17T17:02:51.597Z,10.98
2023-07-17T17:05:19.661Z,14.00
2023-07-17T17:07:47.729Z,13.77
2023-07-17T17:10:15.985Z,10.55
2023-07-17T17:12:44.055Z,11.23
2023-07-17T17:15:12.103Z,11.23
2023-07-17T17:17:40.547Z,8.52
2023-07-17T17:20:10.793Z,9.80
2023-07-17T17:22:38.772Z,10.85
2023-07-17T17:25:07.276Z,7.32
2023-07-17T17:27:35.388Z,8.07
2023-07-17T17:30:04.146Z,13.00
2023-07-17T17:32:51.400Z,9.93
2023-07-17T17:35:19.582Z,9.98
2023-07-17T17:37:47.664Z,11.00
2023-07-17T17:40:15.812Z,10.30
2023-07-17T17:42:43.812Z,10.57
2023-07-17T17:45:13.929Z,8.65
2023-07-17T17:47:42.347Z,10.10
2023-07-17T17:50:10.884Z,8.02
2023-07-17T17:52:39.146Z,8.10
2023-07-17T17:55:07.808Z,10.02
2023-07-17T17:57:35.908Z,11.27
2023-07-17T18:00:06.851Z,9.50
2023-07-17T18:03:06.436Z,8.63
2023-07-17T18:05:34.545Z,8.00
2023-07-17T18:08:02.618Z,7.53
2023-07-17T18:10:30.690Z,7.87
2023-07-17T18:12:58.723Z,8.70
2023-07-17T18:15:26.816Z,9.35
2023-07-17T18:17:58.395Z,9.68
2023-07-17T18:20:28.930Z,5.75
2023-07-17T18:22:57.051Z,11.65
2023-07-17T18:25:25.217Z,9.50
2023-07-17T18:27:53.414Z,7.80
2023-07-17T18:30:21.547Z,8.77
2023-07-17T18:32:49.684Z,11.10
2023-07-17T18:35:17.868Z,10.18
2023-07-17T18:37:45.983Z,9.95
2023-07-17T18:40:14.517Z,11.02
2023-07-17T18:42:42.689Z,7.97
2023-07-17T18:45:11.625Z,9.82
2023-07-17T18:47:40.759Z,9.63
2023-07-17T18:50:09.404Z,9.75
2023-07-17T18:52:37.442Z,13.73
2023-07-17T18:55:05.968Z,7.30
2023-07-17T18:57:34.026Z,7.70
2023-07-17T19:00:05.823Z,8.43
2023-07-17T19:02:33.957Z,19.85
2023-07-17T19:05:02.199Z,7.72
2023-07-17T19:07:30.757Z,11.73
2023-07-17T19:09:58.827Z,13.20
2023-07-17T19:12:27.047Z,12.57
2023-07-17T19:14:55.197Z,11.48
2023-07-17T19:17:25.491Z,14.32
2023-07-17T19:20:12.338Z,11.52
2023-07-17T19:22:40.490Z,7.53
2023-07-17T19:25:09.236Z,7.47
2023-07-17T19:27:37.331Z,10.82
2023-07-17T19:30:05.936Z,14.27
2023-07-17T19:32:38.890Z,12.40
2023-07-17T19:35:07.844Z,10.70
2023-07-17T19:37:35.930Z,10.38
2023-07-17T19:40:04.922Z,11.57
2023-07-17T19:42:33.010Z,8.02
2023-07-17T19:45:01.084Z,16.05
2023-07-17T19:47:29.132Z,9.30
2023-07-17T19:49:57.281Z,8.52
2023-07-17T19:52:25.975Z,14.55
2023-07-17T19:54:54.086Z,9.20
2023-07-17T19:57:22.211Z,9.43
2023-07-17T19:59:50.412Z,10.27
2023-07-17T20:02:19.019Z,12.18
2023-07-17T20:04:47.064Z,12.55
2023-07-17T20:07:16.245Z,10.98
2023-07-17T20:09:44.342Z,7.65
2023-07-17T20:12:12.405Z,12.25
2023-07-17T20:14:40.385Z,8.50
2023-07-17T20:17:08.412Z,12.77
2023-07-17T20:19:39.491Z,10.75
2023-07-17T20:22:07.577Z,10.65
2023-07-17T20:24:35.557Z,8.38
2023-07-17T20:27:03.775Z,15.32
2023-07-17T20:29:31.861Z,10.15
2023-07-17T20:31:59.949Z,7.40
2023-07-17T20:34:28.046Z,8.13
2023-07-17T20:36:56.343Z,9.88
2023-07-17T20:39:24.257Z,8.95
2023-07-17T20:41:52.342Z,11.23
2023-07-17T20:44:20.392Z,9.93
2023-07-17T20:46:48.493Z,9.00
2023-07-17T20:49:17.054Z,13.10
2023-07-17T20:54:31.270Z,8.73
2023-07-17T20:59:44.916Z,12.77
2023-07-17T21:04:58.700Z,8.85
2023-07-17T21:07:26.864Z,9.43
2023-07-17T21:09:55.770Z,10.57
2023-07-17T21:15:11.286Z,7.45
2023-07-17T21:20:24.820Z,8.65
2023-07-17T21:22:52.876Z,10.13
2023-07-17T21:25:40.399Z,10.52
2023-07-17T21:28:10.390Z,8.25
2023-07-17T21:30:38.772Z,9.65
2023-07-17T21:33:06.926Z,9.05
2023-07-17T21:35:35.161Z,9.93
2023-07-17T21:38:04.253Z,14.25
2023-07-17T21:40:32.323Z,7.75
2023-07-17T21:43:00.418Z,10.27
2023-07-17T21:45:28.799Z,8.43
2023-07-17T21:47:57.168Z,11.70
2023-07-17T21:50:25.299Z,12.50
2023-07-17T21:55:38.884Z,9.20
2023-07-17T21:58:06.992Z,8.20
2023-07-17T22:00:39.564Z,8.60
2023-07-17T22:03:08.517Z,8.07
2023-07-17T22:05:36.681Z,9.98
2023-07-17T22:08:04.880Z,5.88
2023-07-17T22:10:33.056Z,6.50
2023-07-17T22:13:01.566Z,6.35
2023-07-17T22:15:29.690Z,7.80
2023-07-17T22:18:12.462Z,5.47
2023-07-17T22:20:44.262Z,7.55
2023-07-17T22:25:58.952Z,8.75
2023-07-17T22:28:27.122Z,9.82
2023-07-17T22:30:55.136Z,7.82
2023-07-17T22:33:25.095Z,8.60
2023-07-17T22:35:53.226Z,7.50
2023-07-17T22:38:22.990Z,10.50
2023-07-17T22:41:09.588Z,10.93
2023-07-17T22:43:37.587Z,10.77
2023-07-17T22:46:05.664Z,13.90
2023-07-17T22:48:33.767Z,9.55
2023-07-17T22:51:01.855Z,9.73
2023-07-17T22:53:29.989Z,11.10
2023-07-17T22:55:58.034Z,10.32
2023-07-17T22:58:26.093Z,13.07
2023-07-17T23:00:54.420Z,9.88
2023-07-17T23:03:22.494Z,10.20
2023-07-17T23:08:36.104Z,13.15
2023-07-17T23:11:04.116Z,11.50
2023-07-17T23:13:50.658Z,12.18
2023-07-17T23:16:18.779Z,19.83
2023-07-17T23:18:51.942Z,24.73
2023-07-17T23:21:22.243Z,24.60
2023-07-17T23:23:50.711Z,31.17
2023-07-17T23:26:19.348Z,22.17
2023-07-17T23:28:47.575Z,19.90
2023-07-17T23:31:16.528Z,19.17
2023-07-17T23:33:44.939Z,18.33
2023-07-17T23:36:13.906Z,16.30
2023-07-17T23:39:00.392Z,16.58
2023-07-17T23:41:28.519Z,20.58
2023-07-17T23:43:56.899Z,24.77
2023-07-17T23:46:25.988Z,23.75
2023-07-17T23:48:54.758Z,28.75
2023-07-17T23:51:22.821Z,28.35
2023-07-17T23:53:51.120Z,36.42
2023-07-17T23:56:19.205Z,28.52
2023-07-17T23:58:47.314Z,34.70
